sensor_id;sensor_type;location;lat;lon;timestamp;temperature;humidity
76293;DHT22;67256;51.154;4.164;2023-01-25T00:01:50;21.70;42.00
76293;DHT22;67256;51.154;4.164;2023-01-25T00:04:18;21.70;42.00
76293;DHT22;67256;51.154;4.164;2023-01-25T00:06:44;21.60;42.00
76293;DHT22;67256;51.154;4.164;2023-01-25T00:09:11;21.60;42.10
76293;DHT22;67256;51.154;4.164;2023-01-25T00:11:37;21.70;42.20
76293;DHT22;67256;51.154;4.164;2023-01-25T00:14:04;21.60;42.20
76293;DHT22;67256;51.154;4.164;2023-01-25T00:16:30;21.60;42.20
76293;DHT22;67256;51.154;4.164;2023-01-25T00:18:56;21.60;42.20
76293;DHT22;67256;51.154;4.164;2023-01-25T00:21:24;21.60;42.20
76293;DHT22;67256;51.154;4.164;2023-01-25T00:23:50;21.50;42.20
76293;DHT22;67256;51.154;4.164;2023-01-25T00:26:16;21.50;42.20
76293;DHT22;67256;51.154;4.164;2023-01-25T00:28:41;21.50;42.20
76293;DHT22;67256;51.154;4.164;2023-01-25T00:31:10;21.50;42.30
76293;DHT22;67256;51.154;4.164;2023-01-25T00:33:51;21.50;42.20
76293;DHT22;67256;51.154;4.164;2023-01-25T00:36:33;21.50;42.30
76293;DHT22;67256;51.154;4.164;2023-01-25T00:39:04;21.40;42.30
76293;DHT22;67256;51.154;4.164;2023-01-25T00:41:30;21.50;42.30
76293;DHT22;67256;51.154;4.164;2023-01-25T00:43:56;21.50;42.40
76293;DHT22;67256;51.154;4.164;2023-01-25T00:46:21;21.40;42.30
76293;DHT22;67256;51.154;4.164;2023-01-25T00:48:47;21.40;42.30
76293;DHT22;67256;51.154;4.164;2023-01-25T00:51:13;21.40;42.30
76293;DHT22;67256;51.154;4.164;2023-01-25T00:53:40;21.40;42.40
76293;DHT22;67256;51.154;4.164;2023-01-25T00:56:06;21.30;42.30
76293;DHT22;67256;51.154;4.164;2023-01-25T00:58:32;21.30;42.40
76293;DHT22;67256;51.154;4.164;2023-01-25T01:00:57;21.30;42.40
76293;DHT22;67256;51.154;4.164;2023-01-25T01:03:23;21.30;42.50
76293;DHT22;67256;51.154;4.164;2023-01-25T01:06:02;21.30;42.50
76293;DHT22;67256;51.154;4.164;2023-01-25T01:08:28;21.30;42.40
76293;DHT22;67256;51.154;4.164;2023-01-25T01:10:58;21.30;42.40
76293;DHT22;67256;51.154;4.164;2023-01-25T01:13:26;21.30;42.50
76293;DHT22;67256;51.154;4.164;2023-01-25T01:15:52;21.30;42.50
76293;DHT22;67256;51.154;4.164;2023-01-25T01:18:17;21.30;42.50
76293;DHT22;67256;51.154;4.164;2023-01-25T01:20:52;21.20;42.50
76293;DHT22;67256;51.154;4.164;2023-01-25T01:23:18;21.20;42.50
76293;DHT22;67256;51.154;4.164;2023-01-25T01:25:45;21.20;42.50
76293;DHT22;67256;51.154;4.164;2023-01-25T01:28:11;21.20;42.60
76293;DHT22;67256;51.154;4.164;2023-01-25T01:30:38;21.20;42.60
76293;DHT22;67256;51.154;4.164;2023-01-25T01:33:05;21.20;42.60
76293;DHT22;67256;51.154;4.164;2023-01-25T01:35:31;21.20;42.60
76293;DHT22;67256;51.154;4.164;2023-01-25T01:37:57;21.10;42.50
76293;DHT22;67256;51.154;4.164;2023-01-25T01:40:23;21.20;42.60
76293;DHT22;67256;51.154;4.164;2023-01-25T01:46:01;21.10;42.70
76293;DHT22;67256;51.154;4.164;2023-01-25T01:54:26;21.10;42.60
76293;DHT22;67256;51.154;4.164;2023-01-25T01:57:04;21.00;42.60
76293;DHT22;67256;51.154;4.164;2023-01-25T01:59:38;21.00;42.70
76293;DHT22;67256;51.154;4.164;2023-01-25T02:02:06;21.00;42.70
76293;DHT22;67256;51.154;4.164;2023-01-25T02:04:32;21.00;42.70
76293;DHT22;67256;51.154;4.164;2023-01-25T02:09:43;21.00;42.80
76293;DHT22;67256;51.154;4.164;2023-01-25T02:12:10;21.00;42.80
76293;DHT22;67256;51.154;4.164;2023-01-25T02:14:40;21.00;42.80
76293;DHT22;67256;51.154;4.164;2023-01-25T02:17:10;21.00;42.80
76293;DHT22;67256;51.154;4.164;2023-01-25T02:20:00;21.00;42.80
76293;DHT22;67256;51.154;4.164;2023-01-25T02:25:16;20.90;42.80
76293;DHT22;67256;51.154;4.164;2023-01-25T02:27:54;20.90;42.80
76293;DHT22;67256;51.154;4.164;2023-01-25T02:30:21;20.90;42.80
76293;DHT22;67256;51.154;4.164;2023-01-25T02:32:47;20.90;42.90
76293;DHT22;67256;51.154;4.164;2023-01-25T02:35:22;20.90;42.90
76293;DHT22;67256;51.154;4.164;2023-01-25T02:37:49;20.80;42.90
76293;DHT22;67256;51.154;4.164;2023-01-25T02:40:18;20.90;42.80
76293;DHT22;67256;51.154;4.164;2023-01-25T02:42:44;20.80;42.90
76293;DHT22;67256;51.154;4.164;2023-01-25T02:45:14;20.80;42.90
76293;DHT22;67256;51.154;4.164;2023-01-25T02:47:41;20.80;42.90
76293;DHT22;67256;51.154;4.164;2023-01-25T02:50:07;20.80;42.90
76293;DHT22;67256;51.154;4.164;2023-01-25T02:52:34;20.80;42.90
76293;DHT22;67256;51.154;4.164;2023-01-25T02:54:59;20.80;42.90
76293;DHT22;67256;51.154;4.164;2023-01-25T02:57:25;20.80;42.90
76293;DHT22;67256;51.154;4.164;2023-01-25T02:59:51;20.80;42.90
76293;DHT22;67256;51.154;4.164;2023-01-25T03:02:16;20.80;42.90
76293;DHT22;67256;51.154;4.164;2023-01-25T03:04:42;20.80;42.90
76293;DHT22;67256;51.154;4.164;2023-01-25T03:07:08;20.70;42.90
76293;DHT22;67256;51.154;4.164;2023-01-25T03:09:33;20.70;42.90
76293;DHT22;67256;51.154;4.164;2023-01-25T03:11:59;20.70;42.90
76293;DHT22;67256;51.154;4.164;2023-01-25T03:14:25;20.70;42.90
76293;DHT22;67256;51.154;4.164;2023-01-25T03:16:51;20.70;42.90
76293;DHT22;67256;51.154;4.164;2023-01-25T03:19:17;20.70;43.00
76293;DHT22;67256;51.154;4.164;2023-01-25T03:21:42;20.70;43.00
76293;DHT22;67256;51.154;4.164;2023-01-25T03:24:09;20.70;43.00
76293;DHT22;67256;51.154;4.164;2023-01-25T03:26:34;20.70;43.00
76293;DHT22;67256;51.154;4.164;2023-01-25T03:29:19;20.70;43.00
76293;DHT22;67256;51.154;4.164;2023-01-25T03:31:45;20.60;43.00
76293;DHT22;67256;51.154;4.164;2023-01-25T03:34:11;20.60;43.00
76293;DHT22;67256;51.154;4.164;2023-01-25T03:36:36;20.60;43.00
76293;DHT22;67256;51.154;4.164;2023-01-25T03:39:02;20.60;43.00
76293;DHT22;67256;51.154;4.164;2023-01-25T03:41:28;20.60;43.00
76293;DHT22;67256;51.154;4.164;2023-01-25T03:43:53;20.60;43.00
76293;DHT22;67256;51.154;4.164;2023-01-25T03:46:19;20.60;43.00
76293;DHT22;67256;51.154;4.164;2023-01-25T03:48:44;20.60;43.10
76293;DHT22;67256;51.154;4.164;2023-01-25T03:51:11;20.60;43.10
76293;DHT22;67256;51.154;4.164;2023-01-25T03:53:37;20.50;43.10
76293;DHT22;67256;51.154;4.164;2023-01-25T03:56:10;20.50;43.00
76293;DHT22;67256;51.154;4.164;2023-01-25T03:58:41;20.50;43.10
76293;DHT22;67256;51.154;4.164;2023-01-25T04:01:07;20.50;43.10
76293;DHT22;67256;51.154;4.164;2023-01-25T04:03:33;20.50;43.10
76293;DHT22;67256;51.154;4.164;2023-01-25T04:05:59;20.50;43.10
76293;DHT22;67256;51.154;4.164;2023-01-25T04:08:25;20.50;43.10
76293;DHT22;67256;51.154;4.164;2023-01-25T04:10:53;20.50;43.10
76293;DHT22;67256;51.154;4.164;2023-01-25T04:13:20;20.40;43.20
76293;DHT22;67256;51.154;4.164;2023-01-25T04:15:46;20.40;43.10
76293;DHT22;67256;51.154;4.164;2023-01-25T04:18:12;20.40;43.10
76293;DHT22;67256;51.154;4.164;2023-01-25T04:20:38;20.40;43.20
76293;DHT22;67256;51.154;4.164;2023-01-25T04:23:04;20.40;43.10
76293;DHT22;67256;51.154;4.164;2023-01-25T04:25:32;20.40;43.10
76293;DHT22;67256;51.154;4.164;2023-01-25T04:27:57;20.40;43.20
76293;DHT22;67256;51.154;4.164;2023-01-25T04:30:23;20.40;43.20
76293;DHT22;67256;51.154;4.164;2023-01-25T04:32:49;20.40;43.20
76293;DHT22;67256;51.154;4.164;2023-01-25T04:35:15;20.40;43.20
76293;DHT22;67256;51.154;4.164;2023-01-25T04:37:41;20.40;43.20
76293;DHT22;67256;51.154;4.164;2023-01-25T04:40:08;20.40;43.20
76293;DHT22;67256;51.154;4.164;2023-01-25T04:42:34;20.30;43.20
76293;DHT22;67256;51.154;4.164;2023-01-25T04:45:00;20.30;43.20
76293;DHT22;67256;51.154;4.164;2023-01-25T04:47:26;20.30;43.10
76293;DHT22;67256;51.154;4.164;2023-01-25T04:49:51;20.30;43.20
76293;DHT22;67256;51.154;4.164;2023-01-25T04:52:18;20.30;43.20
76293;DHT22;67256;51.154;4.164;2023-01-25T04:54:44;20.30;43.20
76293;DHT22;67256;51.154;4.164;2023-01-25T04:57:09;20.30;43.20
76293;DHT22;67256;51.154;4.164;2023-01-25T04:59:35;20.30;43.20
76293;DHT22;67256;51.154;4.164;2023-01-25T05:02:00;20.30;43.20
76293;DHT22;67256;51.154;4.164;2023-01-25T05:04:26;20.30;43.20
76293;DHT22;67256;51.154;4.164;2023-01-25T05:06:52;20.20;43.20
76293;DHT22;67256;51.154;4.164;2023-01-25T05:09:18;20.20;43.20
76293;DHT22;67256;51.154;4.164;2023-01-25T05:11:44;20.20;43.10
76293;DHT22;67256;51.154;4.164;2023-01-25T05:14:10;20.20;43.10
76293;DHT22;67256;51.154;4.164;2023-01-25T05:16:36;20.20;43.20
76293;DHT22;67256;51.154;4.164;2023-01-25T05:19:01;20.20;43.20
76293;DHT22;67256;51.154;4.164;2023-01-25T05:21:27;20.20;43.20
76293;DHT22;67256;51.154;4.164;2023-01-25T05:24:11;20.20;43.20
76293;DHT22;67256;51.154;4.164;2023-01-25T05:26:37;20.20;43.20
76293;DHT22;67256;51.154;4.164;2023-01-25T05:29:21;20.20;43.20
76293;DHT22;67256;51.154;4.164;2023-01-25T05:31:47;20.20;43.30
76293;DHT22;67256;51.154;4.164;2023-01-25T05:34:13;20.20;43.20
76293;DHT22;67256;51.154;4.164;2023-01-25T05:36:39;20.20;43.30
76293;DHT22;67256;51.154;4.164;2023-01-25T05:39:05;20.20;43.30
76293;DHT22;67256;51.154;4.164;2023-01-25T05:41:31;20.20;43.30
76293;DHT22;67256;51.154;4.164;2023-01-25T05:43:57;20.10;43.30
76293;DHT22;67256;51.154;4.164;2023-01-25T05:46:22;20.10;43.20
76293;DHT22;67256;51.154;4.164;2023-01-25T05:48:48;20.10;43.20
76293;DHT22;67256;51.154;4.164;2023-01-25T05:51:14;20.10;43.30
76293;DHT22;67256;51.154;4.164;2023-01-25T05:53:40;20.10;43.20
76293;DHT22;67256;51.154;4.164;2023-01-25T05:56:07;20.10;43.30
76293;DHT22;67256;51.154;4.164;2023-01-25T05:58:34;20.10;43.30
76293;DHT22;67256;51.154;4.164;2023-01-25T06:01:01;20.10;43.30
76293;DHT22;67256;51.154;4.164;2023-01-25T06:03:27;20.10;43.30
76293;DHT22;67256;51.154;4.164;2023-01-25T06:05:57;20.10;43.30
76293;DHT22;67256;51.154;4.164;2023-01-25T06:08:24;20.10;43.30
76293;DHT22;67256;51.154;4.164;2023-01-25T06:10:50;20.10;43.30
76293;DHT22;67256;51.154;4.164;2023-01-25T06:13:16;20.00;43.30
76293;DHT22;67256;51.154;4.164;2023-01-25T06:15:42;20.00;43.30
76293;DHT22;67256;51.154;4.164;2023-01-25T06:18:08;20.00;43.30
76293;DHT22;67256;51.154;4.164;2023-01-25T06:20:33;20.00;43.30
76293;DHT22;67256;51.154;4.164;2023-01-25T06:22:59;20.00;43.30
76293;DHT22;67256;51.154;4.164;2023-01-25T06:25:25;20.00;43.30
76293;DHT22;67256;51.154;4.164;2023-01-25T06:27:51;20.00;43.30
76293;DHT22;67256;51.154;4.164;2023-01-25T06:30:19;20.00;43.30
76293;DHT22;67256;51.154;4.164;2023-01-25T06:32:44;20.00;43.30
76293;DHT22;67256;51.154;4.164;2023-01-25T06:35:11;20.00;43.30
76293;DHT22;67256;51.154;4.164;2023-01-25T06:37:36;20.00;43.30
76293;DHT22;67256;51.154;4.164;2023-01-25T06:40:02;20.00;43.30
76293;DHT22;67256;51.154;4.164;2023-01-25T06:42:28;20.00;43.40
76293;DHT22;67256;51.154;4.164;2023-01-25T06:44:53;20.00;43.40
76293;DHT22;67256;51.154;4.164;2023-01-25T06:47:19;20.10;43.40
76293;DHT22;67256;51.154;4.164;2023-01-25T06:49:45;20.10;43.40
76293;DHT22;67256;51.154;4.164;2023-01-25T06:52:10;20.10;43.20
76293;DHT22;67256;51.154;4.164;2023-01-25T06:54:36;20.20;43.20
76293;DHT22;67256;51.154;4.164;2023-01-25T06:57:02;20.20;43.10
76293;DHT22;67256;51.154;4.164;2023-01-25T06:59:28;20.30;43.20
76293;DHT22;67256;51.154;4.164;2023-01-25T07:01:54;20.30;43.20
76293;DHT22;67256;51.154;4.164;2023-01-25T07:04:19;20.30;43.20
76293;DHT22;67256;51.154;4.164;2023-01-25T07:06:45;20.40;43.20
76293;DHT22;67256;51.154;4.164;2023-01-25T07:09:13;20.40;43.00
76293;DHT22;67256;51.154;4.164;2023-01-25T07:11:39;20.50;43.10
76293;DHT22;67256;51.154;4.164;2023-01-25T07:14:05;20.50;43.10
76293;DHT22;67256;51.154;4.164;2023-01-25T07:16:31;20.60;43.00
76293;DHT22;67256;51.154;4.164;2023-01-25T07:19:05;20.60;43.00
76293;DHT22;67256;51.154;4.164;2023-01-25T07:21:31;20.60;43.50
76293;DHT22;67256;51.154;4.164;2023-01-25T07:24:01;20.60;43.00
76293;DHT22;67256;51.154;4.164;2023-01-25T07:26:27;20.70;43.00
76293;DHT22;67256;51.154;4.164;2023-01-25T07:28:53;20.80;43.00
76293;DHT22;67256;51.154;4.164;2023-01-25T07:31:20;20.80;42.90
76293;DHT22;67256;51.154;4.164;2023-01-25T07:33:48;20.90;42.90
76293;DHT22;67256;51.154;4.164;2023-01-25T07:36:14;20.90;42.80
76293;DHT22;67256;51.154;4.164;2023-01-25T07:38:39;20.90;42.80
76293;DHT22;67256;51.154;4.164;2023-01-25T07:41:05;20.90;42.70
76293;DHT22;67256;51.154;4.164;2023-01-25T07:43:31;21.00;42.70
76293;DHT22;67256;51.154;4.164;2023-01-25T07:46:02;21.00;42.60
76293;DHT22;67256;51.154;4.164;2023-01-25T07:48:28;21.10;42.60
76293;DHT22;67256;51.154;4.164;2023-01-25T07:51:00;21.10;42.60
76293;DHT22;67256;51.154;4.164;2023-01-25T07:53:45;21.20;42.60
76293;DHT22;67256;51.154;4.164;2023-01-25T07:56:11;21.20;42.50
76293;DHT22;67256;51.154;4.164;2023-01-25T07:58:37;21.20;42.40
76293;DHT22;67256;51.154;4.164;2023-01-25T08:01:11;21.30;42.30
76293;DHT22;67256;51.154;4.164;2023-01-25T08:03:37;21.30;42.40
76293;DHT22;67256;51.154;4.164;2023-01-25T08:06:03;21.40;42.30
76293;DHT22;67256;51.154;4.164;2023-01-25T08:08:32;21.40;42.30
76293;DHT22;67256;51.154;4.164;2023-01-25T08:11:17;21.40;42.20
76293;DHT22;67256;51.154;4.164;2023-01-25T08:13:44;21.50;42.30
76293;DHT22;67256;51.154;4.164;2023-01-25T08:16:22;21.50;42.20
76293;DHT22;67256;51.154;4.164;2023-01-25T08:18:50;21.60;42.20
76293;DHT22;67256;51.154;4.164;2023-01-25T08:21:16;21.60;42.20
76293;DHT22;67256;51.154;4.164;2023-01-25T08:23:42;21.60;42.10
76293;DHT22;67256;51.154;4.164;2023-01-25T08:26:10;21.60;42.00
76293;DHT22;67256;51.154;4.164;2023-01-25T08:28:36;21.70;42.10
76293;DHT22;67256;51.154;4.164;2023-01-25T08:33:38;21.80;42.00
76293;DHT22;67256;51.154;4.164;2023-01-25T08:36:04;21.80;42.00
76293;DHT22;67256;51.154;4.164;2023-01-25T08:38:31;21.80;41.90
76293;DHT22;67256;51.154;4.164;2023-01-25T08:41:04;21.90;41.90
76293;DHT22;67256;51.154;4.164;2023-01-25T08:43:30;21.90;41.90
76293;DHT22;67256;51.154;4.164;2023-01-25T08:45:56;22.00;41.90
76293;DHT22;67256;51.154;4.164;2023-01-25T08:48:22;22.00;41.80
76293;DHT22;67256;51.154;4.164;2023-01-25T08:50:48;22.00;41.70
76293;DHT22;67256;51.154;4.164;2023-01-25T08:53:14;22.00;41.70
76293;DHT22;67256;51.154;4.164;2023-01-25T08:55:40;22.00;41.70
76293;DHT22;67256;51.154;4.164;2023-01-25T08:58:11;22.10;41.70
76293;DHT22;67256;51.154;4.164;2023-01-25T09:00:38;22.10;41.70
76293;DHT22;67256;51.154;4.164;2023-01-25T09:03:04;22.10;41.60
76293;DHT22;67256;51.154;4.164;2023-01-25T09:05:32;22.10;41.60
76293;DHT22;67256;51.154;4.164;2023-01-25T09:07:57;22.20;41.50
76293;DHT22;67256;51.154;4.164;2023-01-25T09:10:23;22.30;41.60
76293;DHT22;67256;51.154;4.164;2023-01-25T09:12:49;22.30;41.40
76293;DHT22;67256;51.154;4.164;2023-01-25T09:15:15;22.30;41.50
76293;DHT22;67256;51.154;4.164;2023-01-25T09:17:41;22.30;41.50
76293;DHT22;67256;51.154;4.164;2023-01-25T09:20:07;22.30;41.40
76293;DHT22;67256;51.154;4.164;2023-01-25T09:22:33;22.30;41.40
76293;DHT22;67256;51.154;4.164;2023-01-25T09:24:59;22.40;41.40
76293;DHT22;67256;51.154;4.164;2023-01-25T09:27:25;22.40;41.40
76293;DHT22;67256;51.154;4.164;2023-01-25T09:29:50;22.40;41.30
76293;DHT22;67256;51.154;4.164;2023-01-25T09:32:17;22.40;41.30
76293;DHT22;67256;51.154;4.164;2023-01-25T09:34:42;22.40;41.20
76293;DHT22;67256;51.154;4.164;2023-01-25T09:37:08;22.40;41.20
76293;DHT22;67256;51.154;4.164;2023-01-25T09:39:34;22.40;41.20
76293;DHT22;67256;51.154;4.164;2023-01-25T09:42:23;22.40;41.20
76293;DHT22;67256;51.154;4.164;2023-01-25T09:46:39;22.30;40.60
76293;DHT22;67256;51.154;4.164;2023-01-25T09:49:04;21.90;34.00
76293;DHT22;67256;51.154;4.164;2023-01-25T09:54:24;21.80;36.90
76293;DHT22;67256;51.154;4.164;2023-01-25T12:12:37;12.60;84.70
76293;DHT22;67256;51.154;4.164;2023-01-25T12:46:41;23.40;41.90
76293;DHT22;67256;51.154;4.164;2023-01-25T12:54:47;23.60;41.50
76293;DHT22;67256;51.154;4.164;2023-01-25T12:57:24;23.60;41.20
76293;DHT22;67256;51.154;4.164;2023-01-25T13:01:04;23.60;41.10
76293;DHT22;67256;51.154;4.164;2023-01-25T13:09:49;23.70;41.00
76293;DHT22;67256;51.154;4.164;2023-01-25T13:11:55;23.60;40.70
76293;DHT22;67256;51.154;4.164;2023-01-25T13:14:28;23.70;40.70
76293;DHT22;67256;51.154;4.164;2023-01-25T13:17:08;23.60;40.70
76293;DHT22;67256;51.154;4.164;2023-01-25T13:22:01;23.60;40.60
76293;DHT22;67256;51.154;4.164;2023-01-25T13:32:02;23.50;40.90
76293;DHT22;67256;51.154;4.164;2023-01-25T13:37:20;23.50;40.70
76293;DHT22;67256;51.154;4.164;2023-01-25T13:39:49;23.50;40.90
76293;DHT22;67256;51.154;4.164;2023-01-25T13:42:18;23.50;40.60
76293;DHT22;67256;51.154;4.164;2023-01-25T13:44:47;23.50;40.70
76293;DHT22;67256;51.154;4.164;2023-01-25T13:47:20;23.50;40.70
76293;DHT22;67256;51.154;4.164;2023-01-25T13:52:17;23.50;40.70
76293;DHT22;67256;51.154;4.164;2023-01-25T13:54:44;23.50;40.80
76293;DHT22;67256;51.154;4.164;2023-01-25T13:57:21;23.60;40.90
76293;DHT22;67256;51.154;4.164;2023-01-25T13:59:47;23.60;40.80
76293;DHT22;67256;51.154;4.164;2023-01-25T14:02:24;23.60;40.80
76293;DHT22;67256;51.154;4.164;2023-01-25T14:04:51;23.60;40.80
76293;DHT22;67256;51.154;4.164;2023-01-25T14:07:23;23.60;40.80
76293;DHT22;67256;51.154;4.164;2023-01-25T14:09:49;23.60;40.90
76293;DHT22;67256;51.154;4.164;2023-01-25T14:14:56;23.60;41.10
76293;DHT22;67256;51.154;4.164;2023-01-25T14:17:22;23.60;40.80
76293;DHT22;67256;51.154;4.164;2023-01-25T14:19:52;23.60;40.80
76293;DHT22;67256;51.154;4.164;2023-01-25T14:22:28;23.60;40.80
76293;DHT22;67256;51.154;4.164;2023-01-25T14:25:11;23.60;41.50
76293;DHT22;67256;51.154;4.164;2023-01-25T14:30:25;23.60;40.90
76293;DHT22;67256;51.154;4.164;2023-01-25T14:32:53;23.60;40.80
76293;DHT22;67256;51.154;4.164;2023-01-25T14:40:50;23.60;40.90
76293;DHT22;67256;51.154;4.164;2023-01-25T14:43:18;23.60;40.80
76293;DHT22;67256;51.154;4.164;2023-01-25T14:45:45;23.60;40.90
76293;DHT22;67256;51.154;4.164;2023-01-25T14:48:42;23.60;40.80
76293;DHT22;67256;51.154;4.164;2023-01-25T14:53:48;23.60;40.80
76293;DHT22;67256;51.154;4.164;2023-01-25T14:56:25;23.60;40.80
76293;DHT22;67256;51.154;4.164;2023-01-25T14:58:52;23.60;40.80
76293;DHT22;67256;51.154;4.164;2023-01-25T15:01:31;23.60;40.80
76293;DHT22;67256;51.154;4.164;2023-01-25T15:03:57;23.60;40.90
76293;DHT22;67256;51.154;4.164;2023-01-25T15:06:23;23.60;40.80
76293;DHT22;67256;51.154;4.164;2023-01-25T15:08:49;23.50;40.70
76293;DHT22;67256;51.154;4.164;2023-01-25T15:11:27;23.60;40.80
76293;DHT22;67256;51.154;4.164;2023-01-25T15:14:10;23.60;41.00
76293;DHT22;67256;51.154;4.164;2023-01-25T15:16:38;23.60;40.90
76293;DHT22;67256;51.154;4.164;2023-01-25T15:19:20;23.60;40.90
76293;DHT22;67256;51.154;4.164;2023-01-25T15:21:47;23.60;41.00
76293;DHT22;67256;51.154;4.164;2023-01-25T15:24:13;23.60;40.90
76293;DHT22;67256;51.154;4.164;2023-01-25T15:26:42;23.60;40.90
76293;DHT22;67256;51.154;4.164;2023-01-25T15:29:19;23.60;41.00
76293;DHT22;67256;51.154;4.164;2023-01-25T15:31:47;23.60;40.90
76293;DHT22;67256;51.154;4.164;2023-01-25T15:34:19;23.60;41.00
76293;DHT22;67256;51.154;4.164;2023-01-25T15:36:46;23.70;40.90
76293;DHT22;67256;51.154;4.164;2023-01-25T15:39:13;23.70;41.00
76293;DHT22;67256;51.154;4.164;2023-01-25T15:41:40;23.70;41.00
76293;DHT22;67256;51.154;4.164;2023-01-25T15:44:06;23.70;41.10
76293;DHT22;67256;51.154;4.164;2023-01-25T15:46:32;23.70;40.90
76293;DHT22;67256;51.154;4.164;2023-01-25T15:48:59;23.70;41.00
76293;DHT22;67256;51.154;4.164;2023-01-25T15:51:25;23.70;40.90
76293;DHT22;67256;51.154;4.164;2023-01-25T15:53:51;23.70;40.80
76293;DHT22;67256;51.154;4.164;2023-01-25T15:56:19;23.70;40.80
76293;DHT22;67256;51.154;4.164;2023-01-25T15:58:51;23.70;40.90
76293;DHT22;67256;51.154;4.164;2023-01-25T16:01:17;23.70;40.80
76293;DHT22;67256;51.154;4.164;2023-01-25T16:03:44;23.60;40.60
76293;DHT22;67256;51.154;4.164;2023-01-25T16:06:36;23.60;40.80
76293;DHT22;67256;51.154;4.164;2023-01-25T16:09:15;23.60;40.90
76293;DHT22;67256;51.154;4.164;2023-01-25T16:11:44;23.60;40.80
76293;DHT22;67256;51.154;4.164;2023-01-25T16:14:10;23.50;40.70
76293;DHT22;67256;51.154;4.164;2023-01-25T16:16:44;23.50;40.70
76293;DHT22;67256;51.154;4.164;2023-01-25T16:19:16;23.50;40.70
76293;DHT22;67256;51.154;4.164;2023-01-25T16:21:42;23.50;41.20
76293;DHT22;67256;51.154;4.164;2023-01-25T16:24:09;23.50;40.80
76293;DHT22;67256;51.154;4.164;2023-01-25T16:26:37;23.40;40.60
76293;DHT22;67256;51.154;4.164;2023-01-25T16:29:04;23.40;41.10
76293;DHT22;67256;51.154;4.164;2023-01-25T16:31:30;23.40;40.70
76293;DHT22;67256;51.154;4.164;2023-01-25T16:33:55;23.40;40.80
76293;DHT22;67256;51.154;4.164;2023-01-25T16:36:23;23.40;40.60
76293;DHT22;67256;51.154;4.164;2023-01-25T16:38:49;23.40;41.30
76293;DHT22;67256;51.154;4.164;2023-01-25T16:41:15;23.40;40.70
76293;DHT22;67256;51.154;4.164;2023-01-25T16:43:47;23.40;40.80
76293;DHT22;67256;51.154;4.164;2023-01-25T16:46:19;23.50;41.00
76293;DHT22;67256;51.154;4.164;2023-01-25T16:48:47;23.50;41.10
76293;DHT22;67256;51.154;4.164;2023-01-25T16:51:18;23.60;41.30
76293;DHT22;67256;51.154;4.164;2023-01-25T16:53:46;23.60;41.20
76293;DHT22;67256;51.154;4.164;2023-01-25T16:56:28;23.60;41.30
76293;DHT22;67256;51.154;4.164;2023-01-25T16:58:56;23.70;41.60
76293;DHT22;67256;51.154;4.164;2023-01-25T17:01:24;23.80;41.30
76293;DHT22;67256;51.154;4.164;2023-01-25T17:03:50;23.80;41.10
76293;DHT22;67256;51.154;4.164;2023-01-25T17:06:24;23.80;41.20
76293;DHT22;67256;51.154;4.164;2023-01-25T17:08:51;23.90;41.10
76293;DHT22;67256;51.154;4.164;2023-01-25T17:11:19;23.90;41.10
76293;DHT22;67256;51.154;4.164;2023-01-25T17:13:50;23.90;41.40
76293;DHT22;67256;51.154;4.164;2023-01-25T17:16:17;23.90;41.10
76293;DHT22;67256;51.154;4.164;2023-01-25T17:18:43;24.00;41.20
76293;DHT22;67256;51.154;4.164;2023-01-25T17:21:09;24.10;41.70
76293;DHT22;67256;51.154;4.164;2023-01-25T17:23:36;24.10;41.00
76293;DHT22;67256;51.154;4.164;2023-01-25T17:26:04;24.00;40.90
76293;DHT22;67256;51.154;4.164;2023-01-25T17:28:30;24.00;41.00
76293;DHT22;67256;51.154;4.164;2023-01-25T17:30:56;24.00;41.20
76293;DHT22;67256;51.154;4.164;2023-01-25T17:33:22;24.00;41.20
76293;DHT22;67256;51.154;4.164;2023-01-25T17:35:47;24.10;41.30
76293;DHT22;67256;51.154;4.164;2023-01-25T17:38:13;24.00;41.20
76293;DHT22;67256;51.154;4.164;2023-01-25T17:40:39;24.00;40.90
76293;DHT22;67256;51.154;4.164;2023-01-25T17:43:05;24.00;40.80
76293;DHT22;67256;51.154;4.164;2023-01-25T17:45:31;24.10;40.90
76293;DHT22;67256;51.154;4.164;2023-01-25T17:48:06;24.10;40.70
76293;DHT22;67256;51.154;4.164;2023-01-25T17:50:35;24.10;40.70
76293;DHT22;67256;51.154;4.164;2023-01-25T17:53:02;24.20;40.70
76293;DHT22;67256;51.154;4.164;2023-01-25T17:55:28;24.20;40.70
76293;DHT22;67256;51.154;4.164;2023-01-25T17:57:56;24.20;40.80
76293;DHT22;67256;51.154;4.164;2023-01-25T18:00:22;24.20;40.70
76293;DHT22;67256;51.154;4.164;2023-01-25T18:02:48;24.20;40.60
76293;DHT22;67256;51.154;4.164;2023-01-25T18:05:16;24.20;40.80
76293;DHT22;67256;51.154;4.164;2023-01-25T18:07:42;24.20;41.00
76293;DHT22;67256;51.154;4.164;2023-01-25T18:10:09;24.20;41.00
76293;DHT22;67256;51.154;4.164;2023-01-25T18:12:36;24.20;41.10
76293;DHT22;67256;51.154;4.164;2023-01-25T18:15:03;24.10;41.10
76293;DHT22;67256;51.154;4.164;2023-01-25T18:17:29;24.10;41.10
76293;DHT22;67256;51.154;4.164;2023-01-25T18:20:01;24.20;41.10
76293;DHT22;67256;51.154;4.164;2023-01-25T18:22:30;24.20;41.10
76293;DHT22;67256;51.154;4.164;2023-01-25T18:24:56;24.20;41.70
76293;DHT22;67256;51.154;4.164;2023-01-25T18:27:24;24.20;41.10
76293;DHT22;67256;51.154;4.164;2023-01-25T18:30:00;24.20;41.20
76293;DHT22;67256;51.154;4.164;2023-01-25T18:32:26;24.20;41.20
76293;DHT22;67256;51.154;4.164;2023-01-25T18:34:52;24.20;41.20
76293;DHT22;67256;51.154;4.164;2023-01-25T18:37:18;24.20;41.10
76293;DHT22;67256;51.154;4.164;2023-01-25T18:39:51;24.20;41.00
76293;DHT22;67256;51.154;4.164;2023-01-25T18:42:18;24.20;41.00
76293;DHT22;67256;51.154;4.164;2023-01-25T18:44:45;24.20;40.90
76293;DHT22;67256;51.154;4.164;2023-01-25T18:47:22;24.20;40.90
76293;DHT22;67256;51.154;4.164;2023-01-25T18:49:49;24.10;40.90
76293;DHT22;67256;51.154;4.164;2023-01-25T18:52:17;24.20;40.70
76293;DHT22;67256;51.154;4.164;2023-01-25T18:54:44;24.10;40.60
76293;DHT22;67256;51.154;4.164;2023-01-25T18:57:10;24.10;40.60
76293;DHT22;67256;51.154;4.164;2023-01-25T18:59:36;24.10;40.60
76293;DHT22;67256;51.154;4.164;2023-01-25T19:02:02;24.10;40.60
76293;DHT22;67256;51.154;4.164;2023-01-25T19:04:28;24.10;40.70
76293;DHT22;67256;51.154;4.164;2023-01-25T19:06:54;24.20;40.90
76293;DHT22;67256;51.154;4.164;2023-01-25T19:09:26;24.20;41.00
76293;DHT22;67256;51.154;4.164;2023-01-25T19:11:53;24.20;41.50
76293;DHT22;67256;51.154;4.164;2023-01-25T19:14:19;24.30;41.30
76293;DHT22;67256;51.154;4.164;2023-01-25T19:16:45;24.30;41.20
76293;DHT22;67256;51.154;4.164;2023-01-25T19:19:11;24.30;41.20
76293;DHT22;67256;51.154;4.164;2023-01-25T19:21:37;24.30;41.10
76293;DHT22;67256;51.154;4.164;2023-01-25T19:24:07;24.30;41.00
76293;DHT22;67256;51.154;4.164;2023-01-25T19:26:33;24.30;41.00